sensor_id;sensor_type;location;lat;lon;timestamp;P1;durP1;ratioP1;P2;durP2;ratioP2
73733;SDS011;62039;50.000;9.064;2023-05-10T00:01:38;0.60;;;0.60;;
73733;SDS011;62039;50.000;9.064;2023-05-10T00:04:05;0.63;;;0.63;;
73733;SDS011;62039;50.000;9.064;2023-05-10T00:06:34;0.70;;;0.50;;
73733;SDS011;62039;50.000;9.064;2023-05-10T00:09:01;1.43;;;0.60;;
73733;SDS011;62039;50.000;9.064;2023-05-10T00:11:28;0.40;;;0.40;;
73733;SDS011;62039;50.000;9.064;2023-05-10T00:13:55;0.40;;;0.40;;
73733;SDS011;62039;50.000;9.064;2023-05-10T00:16:22;0.30;;;0.30;;
73733;SDS011;62039;50.000;9.064;2023-05-10T00:18:49;0.60;;;0.40;;
73733;SDS011;62039;50.000;9.064;2023-05-10T00:21:16;0.30;;;0.30;;
73733;SDS011;62039;50.000;9.064;2023-05-10T00:23:46;0.30;;;0.30;;
73733;SDS011;62039;50.000;9.064;2023-05-10T00:26:13;0.30;;;0.30;;
73733;SDS011;62039;50.000;9.064;2023-05-10T00:28:40;0.60;;;0.20;;
73733;SDS011;62039;50.000;9.064;2023-05-10T00:31:06;0.53;;;0.37;;
73733;SDS011;62039;50.000;9.064;2023-05-10T00:33:33;0.20;;;0.20;;
73733;SDS011;62039;50.000;9.064;2023-05-10T00:36:00;0.30;;;0.30;;
73733;SDS011;62039;50.000;9.064;2023-05-10T00:38:27;0.87;;;0.40;;
73733;SDS011;62039;50.000;9.064;2023-05-10T00:40:57;0.63;;;0.40;;
73733;SDS011;62039;50.000;9.064;2023-05-10T00:43:24;0.20;;;0.20;;
73733;SDS011;62039;50.000;9.064;2023-05-10T00:45:51;0.30;;;0.30;;
73733;SDS011;62039;50.000;9.064;2023-05-10T00:48:19;1.67;;;0.40;;
73733;SDS011;62039;50.000;9.064;2023-05-10T00:50:46;0.30;;;0.20;;
73733;SDS011;62039;50.000;9.064;2023-05-10T00:53:13;0.30;;;0.30;;
73733;SDS011;62039;50.000;9.064;2023-05-10T00:55:41;0.37;;;0.30;;
73733;SDS011;62039;50.000;9.064;2023-05-10T00:58:11;0.30;;;0.30;;
73733;SDS011;62039;50.000;9.064;2023-05-10T01:00:38;0.50;;;0.40;;
73733;SDS011;62039;50.000;9.064;2023-05-10T01:03:09;0.40;;;0.40;;
73733;SDS011;62039;50.000;9.064;2023-05-10T01:05:36;1.87;;;0.30;;
73733;SDS011;62039;50.000;9.064;2023-05-10T01:08:03;0.40;;;0.37;;
73733;SDS011;62039;50.000;9.064;2023-05-10T01:10:31;0.20;;;0.20;;
73733;SDS011;62039;50.000;9.064;2023-05-10T01:12:58;0.30;;;0.30;;
73733;SDS011;62039;50.000;9.064;2023-05-10T01:15:28;0.30;;;0.30;;
73733;SDS011;62039;50.000;9.064;2023-05-10T01:17:57;0.40;;;0.40;;
73733;SDS011;62039;50.000;9.064;2023-05-10T01:20:24;0.90;;;0.33;;
73733;SDS011;62039;50.000;9.064;2023-05-10T01:23:00;1.37;;;0.40;;
73733;SDS011;62039;50.000;9.064;2023-05-10T01:25:44;0.57;;;0.30;;
73733;SDS011;62039;50.000;9.064;2023-05-10T01:32:02;0.30;;;0.30;;
73733;SDS011;62039;50.000;9.064;2023-05-10T01:34:39;0.30;;;0.30;;
73733;SDS011;62039;50.000;9.064;2023-05-10T01:37:15;0.20;;;0.20;;
73733;SDS011;62039;50.000;9.064;2023-05-10T01:39:47;0.73;;;0.30;;
73733;SDS011;62039;50.000;9.064;2023-05-10T01:42:21;0.50;;;0.47;;
73733;SDS011;62039;50.000;9.064;2023-05-10T01:44:53;1.90;;;0.30;;
73733;SDS011;62039;50.000;9.064;2023-05-10T01:47:30;0.20;;;0.20;;
73733;SDS011;62039;50.000;9.064;2023-05-10T01:50:01;0.63;;;0.30;;
73733;SDS011;62039;50.000;9.064;2023-05-10T01:52:32;0.40;;;0.30;;
73733;SDS011;62039;50.000;9.064;2023-05-10T01:55:04;0.30;;;0.30;;
73733;SDS011;62039;50.000;9.064;2023-05-10T01:57:33;0.30;;;0.30;;
73733;SDS011;62039;50.000;9.064;2023-05-10T02:00:03;2.13;;;0.40;;
73733;SDS011;62039;50.000;9.064;2023-05-10T02:02:35;0.30;;;0.30;;
73733;SDS011;62039;50.000;9.064;2023-05-10T02:05:05;0.33;;;0.33;;
73733;SDS011;62039;50.000;9.064;2023-05-10T02:07:34;0.20;;;0.20;;
73733;SDS011;62039;50.000;9.064;2023-05-10T02:10:03;0.70;;;0.30;;
73733;SDS011;62039;50.000;9.064;2023-05-10T02:12:32;0.20;;;0.20;;
73733;SDS011;62039;50.000;9.064;2023-05-10T02:15:02;0.30;;;0.30;;
73733;SDS011;62039;50.000;9.064;2023-05-10T02:17:34;0.30;;;0.30;;
73733;SDS011;62039;50.000;9.064;2023-05-10T02:20:03;1.70;;;0.30;;
73733;SDS011;62039;50.000;9.064;2023-05-10T02:22:33;0.40;;;0.37;;
73733;SDS011;62039;50.000;9.064;2023-05-10T02:25:02;0.50;;;0.30;;
73733;SDS011;62039;50.000;9.064;2023-05-10T02:27:30;0.20;;;0.20;;
73733;SDS011;62039;50.000;9.064;2023-05-10T02:29:58;0.70;;;0.60;;
73733;SDS011;62039;50.000;9.064;2023-05-10T02:32:26;0.23;;;0.23;;
73733;SDS011;62039;50.000;9.064;2023-05-10T02:34:57;0.30;;;0.30;;
73733;SDS011;62039;50.000;9.064;2023-05-10T02:37:27;0.80;;;0.30;;
73733;SDS011;62039;50.000;9.064;2023-05-10T02:39:55;0.30;;;0.30;;
73733;SDS011;62039;50.000;9.064;2023-05-10T02:42:23;1.27;;;0.40;;
73733;SDS011;62039;50.000;9.064;2023-05-10T02:44:53;0.33;;;0.33;;
73733;SDS011;62039;50.000;9.064;2023-05-10T02:47:22;0.40;;;0.40;;
73733;SDS011;62039;50.000;9.064;2023-05-10T02:49:49;0.40;;;0.40;;
73733;SDS011;62039;50.000;9.064;2023-05-10T02:52:21;0.80;;;0.50;;
73733;SDS011;62039;50.000;9.064;2023-05-10T02:54:52;0.30;;;0.30;;
73733;SDS011;62039;50.000;9.064;2023-05-10T02:57:22;0.40;;;0.40;;
73733;SDS011;62039;50.000;9.064;2023-05-10T02:59:53;0.53;;;0.40;;
73733;SDS011;62039;50.000;9.064;2023-05-10T03:02:21;0.70;;;0.40;;
73733;SDS011;62039;50.000;9.064;2023-05-10T03:04:48;0.40;;;0.40;;
73733;SDS011;62039;50.000;9.064;2023-05-10T03:07:15;0.30;;;0.30;;
73733;SDS011;62039;50.000;9.064;2023-05-10T03:09:44;0.40;;;0.40;;
73733;SDS011;62039;50.000;9.064;2023-05-10T03:12:13;0.40;;;0.40;;
73733;SDS011;62039;50.000;9.064;2023-05-10T03:14:47;0.40;;;0.40;;
73733;SDS011;62039;50.000;9.064;2023-05-10T03:17:25;0.73;;;0.43;;
73733;SDS011;62039;50.000;9.064;2023-05-10T03:19:57;0.40;;;0.40;;
73733;SDS011;62039;50.000;9.064;2023-05-10T03:22:26;0.40;;;0.40;;
73733;SDS011;62039;50.000;9.064;2023-05-10T03:25:01;0.40;;;0.40;;
73733;SDS011;62039;50.000;9.064;2023-05-10T03:27:32;0.50;;;0.50;;
73733;SDS011;62039;50.000;9.064;2023-05-10T03:30:01;0.40;;;0.40;;
73733;SDS011;62039;50.000;9.064;2023-05-10T03:32:29;0.50;;;0.50;;
73733;SDS011;62039;50.000;9.064;2023-05-10T03:34:56;0.50;;;0.40;;
73733;SDS011;62039;50.000;9.064;2023-05-10T03:37:23;0.50;;;0.40;;
73733;SDS011;62039;50.000;9.064;2023-05-10T03:39:50;0.43;;;0.43;;
73733;SDS011;62039;50.000;9.064;2023-05-10T03:42:20;0.60;;;0.53;;
73733;SDS011;62039;50.000;9.064;2023-05-10T03:44:47;0.40;;;0.40;;
73733;SDS011;62039;50.000;9.064;2023-05-10T03:47:14;1.00;;;0.50;;
73733;SDS011;62039;50.000;9.064;2023-05-10T03:49:40;0.50;;;0.50;;
73733;SDS011;62039;50.000;9.064;2023-05-10T03:52:07;0.70;;;0.50;;
73733;SDS011;62039;50.000;9.064;2023-05-10T03:54:34;0.53;;;0.53;;
73733;SDS011;62039;50.000;9.064;2023-05-10T03:57:01;0.50;;;0.50;;
73733;SDS011;62039;50.000;9.064;2023-05-10T03:59:31;1.00;;;0.57;;
73733;SDS011;62039;50.000;9.064;2023-05-10T04:01:58;0.57;;;0.53;;
73733;SDS011;62039;50.000;9.064;2023-05-10T04:04:25;0.40;;;0.40;;
73733;SDS011;62039;50.000;9.064;2023-05-10T04:06:52;0.70;;;0.50;;
73733;SDS011;62039;50.000;9.064;2023-05-10T04:09:19;5.37;;;2.00;;
73733;SDS011;62039;50.000;9.064;2023-05-10T04:11:45;1.70;;;1.60;;
73733;SDS011;62039;50.000;9.064;2023-05-10T04:14:12;1.40;;;0.90;;
73733;SDS011;62039;50.000;9.064;2023-05-10T04:16:42;0.70;;;0.70;;
73733;SDS011;62039;50.000;9.064;2023-05-10T04:19:09;0.70;;;0.70;;
73733;SDS011;62039;50.000;9.064;2023-05-10T04:21:36;0.87;;;0.80;;
73733;SDS011;62039;50.000;9.064;2023-05-10T04:24:03;1.60;;;0.60;;
73733;SDS011;62039;50.000;9.064;2023-05-10T04:26:30;1.37;;;1.00;;
73733;SDS011;62039;50.000;9.064;2023-05-10T04:28:57;0.60;;;0.60;;
73733;SDS011;62039;50.000;9.064;2023-05-10T04:31:24;0.90;;;0.70;;
73733;SDS011;62039;50.000;9.064;2023-05-10T04:33:54;0.73;;;0.50;;
73733;SDS011;62039;50.000;9.064;2023-05-10T04:36:21;1.40;;;0.60;;
73733;SDS011;62039;50.000;9.064;2023-05-10T04:38:48;0.90;;;0.80;;
73733;SDS011;62039;50.000;9.064;2023-05-10T04:41:15;0.60;;;0.60;;
73733;SDS011;62039;50.000;9.064;2023-05-10T04:43:42;2.60;;;0.87;;
73733;SDS011;62039;50.000;9.064;2023-05-10T04:46:09;1.37;;;0.90;;
73733;SDS011;62039;50.000;9.064;2023-05-10T04:48:36;0.60;;;0.60;;
73733;SDS011;62039;50.000;9.064;2023-05-10T04:51:05;0.70;;;0.70;;
73733;SDS011;62039;50.000;9.064;2023-05-10T04:53:32;0.70;;;0.70;;
73733;SDS011;62039;50.000;9.064;2023-05-10T04:55:59;0.60;;;0.60;;
73733;SDS011;62039;50.000;9.064;2023-05-10T04:58:26;0.80;;;0.70;;
73733;SDS011;62039;50.000;9.064;2023-05-10T05:00:53;0.90;;;0.80;;
73733;SDS011;62039;50.000;9.064;2023-05-10T05:03:20;0.77;;;0.77;;
73733;SDS011;62039;50.000;9.064;2023-05-10T05:05:47;1.17;;;0.70;;
73733;SDS011;62039;50.000;9.064;2023-05-10T05:08:17;0.80;;;0.80;;
73733;SDS011;62039;50.000;9.064;2023-05-10T05:10:44;0.90;;;0.70;;
73733;SDS011;62039;50.000;9.064;2023-05-10T05:13:12;0.60;;;0.60;;
73733;SDS011;62039;50.000;9.064;2023-05-10T05:15:39;0.60;;;0.60;;
73733;SDS011;62039;50.000;9.064;2023-05-10T05:18:06;0.63;;;0.63;;
73733;SDS011;62039;50.000;9.064;2023-05-10T05:20:33;0.80;;;0.63;;
73733;SDS011;62039;50.000;9.064;2023-05-10T05:22:59;0.60;;;0.60;;
73733;SDS011;62039;50.000;9.064;2023-05-10T05:25:29;1.03;;;0.60;;
73733;SDS011;62039;50.000;9.064;2023-05-10T05:27:56;0.60;;;0.60;;
73733;SDS011;62039;50.000;9.064;2023-05-10T05:30:23;1.00;;;0.77;;
73733;SDS011;62039;50.000;9.064;2023-05-10T05:32:50;1.40;;;0.70;;
73733;SDS011;62039;50.000;9.064;2023-05-10T05:35:17;0.87;;;0.70;;
73733;SDS011;62039;50.000;9.064;2023-05-10T05:37:44;1.07;;;0.60;;
73733;SDS011;62039;50.000;9.064;2023-05-10T05:40:12;0.60;;;0.60;;
73733;SDS011;62039;50.000;9.064;2023-05-10T05:42:42;0.63;;;0.63;;
73733;SDS011;62039;50.000;9.064;2023-05-10T05:45:09;0.80;;;0.80;;
73733;SDS011;62039;50.000;9.064;2023-05-10T05:47:36;0.70;;;0.70;;
73733;SDS011;62039;50.000;9.064;2023-05-10T05:50:03;0.60;;;0.60;;
73733;SDS011;62039;50.000;9.064;2023-05-10T05:52:31;0.60;;;0.60;;
73733;SDS011;62039;50.000;9.064;2023-05-10T05:54:57;0.80;;;0.80;;
73733;SDS011;62039;50.000;9.064;2023-05-10T05:57:24;0.80;;;0.80;;
73733;SDS011;62039;50.000;9.064;2023-05-10T05:59:54;1.17;;;0.83;;
73733;SDS011;62039;50.000;9.064;2023-05-10T06:02:21;1.63;;;0.83;;
73733;SDS011;62039;50.000;9.064;2023-05-10T06:04:48;1.33;;;0.70;;
73733;SDS011;62039;50.000;9.064;2023-05-10T06:07:15;1.53;;;1.00;;
73733;SDS011;62039;50.000;9.064;2023-05-10T06:09:41;0.70;;;0.70;;
73733;SDS011;62039;50.000;9.064;2023-05-10T06:12:08;1.07;;;0.90;;
73733;SDS011;62039;50.000;9.064;2023-05-10T06:14:35;1.10;;;1.00;;
73733;SDS011;62039;50.000;9.064;2023-05-10T06:17:05;2.40;;;1.20;;
73733;SDS011;62039;50.000;9.064;2023-05-10T06:19:32;0.90;;;0.87;;
73733;SDS011;62039;50.000;9.064;2023-05-10T06:21:59;0.70;;;0.70;;
73733;SDS011;62039;50.000;9.064;2023-05-10T06:24:25;2.40;;;0.87;;
73733;SDS011;62039;50.000;9.064;2023-05-10T06:26:52;1.97;;;1.17;;
73733;SDS011;62039;50.000;9.064;2023-05-10T06:29:19;1.00;;;0.90;;
73733;SDS011;62039;50.000;9.064;2023-05-10T06:31:46;1.00;;;0.90;;
73733;SDS011;62039;50.000;9.064;2023-05-10T06:34:16;1.23;;;0.97;;
73733;SDS011;62039;50.000;9.064;2023-05-10T06:36:43;1.33;;;1.03;;
73733;SDS011;62039;50.000;9.064;2023-05-10T06:39:10;1.23;;;0.80;;
73733;SDS011;62039;50.000;9.064;2023-05-10T06:41:37;1.20;;;1.10;;
73733;SDS011;62039;50.000;9.064;2023-05-10T06:44:04;2.30;;;1.10;;
73733;SDS011;62039;50.000;9.064;2023-05-10T06:46:31;0.97;;;0.97;;
73733;SDS011;62039;50.000;9.064;2023-05-10T06:48:58;1.60;;;1.20;;
73733;SDS011;62039;50.000;9.064;2023-05-10T06:51:27;0.83;;;0.80;;
73733;SDS011;62039;50.000;9.064;2023-05-10T06:53:54;0.90;;;0.90;;
73733;SDS011;62039;50.000;9.064;2023-05-10T06:56:21;1.20;;;1.10;;
73733;SDS011;62039;50.000;9.064;2023-05-10T06:58:48;0.83;;;0.83;;
73733;SDS011;62039;50.000;9.064;2023-05-10T07:01:15;1.47;;;1.00;;
73733;SDS011;62039;50.000;9.064;2023-05-10T07:03:42;1.77;;;1.20;;
73733;SDS011;62039;50.000;9.064;2023-05-10T07:06:09;2.60;;;1.23;;
73733;SDS011;62039;50.000;9.064;2023-05-10T07:08:53;1.27;;;1.10;;
73733;SDS011;62039;50.000;9.064;2023-05-10T07:11:20;1.20;;;1.00;;
73733;SDS011;62039;50.000;9.064;2023-05-10T07:13:47;1.13;;;0.80;;
73733;SDS011;62039;50.000;9.064;2023-05-10T07:16:14;1.87;;;1.10;;
73733;SDS011;62039;50.000;9.064;2023-05-10T07:18:41;1.47;;;1.27;;
73733;SDS011;62039;50.000;9.064;2023-05-10T07:21:08;1.80;;;1.03;;
73733;SDS011;62039;50.000;9.064;2023-05-10T07:23:35;2.83;;;1.50;;
73733;SDS011;62039;50.000;9.064;2023-05-10T07:26:04;1.17;;;1.00;;
73733;SDS011;62039;50.000;9.064;2023-05-10T07:28:31;2.83;;;1.33;;
73733;SDS011;62039;50.000;9.064;2023-05-10T07:30:58;1.10;;;1.00;;
73733;SDS011;62039;50.000;9.064;2023-05-10T07:33:25;2.90;;;1.30;;
73733;SDS011;62039;50.000;9.064;2023-05-10T07:35:52;1.57;;;1.00;;
73733;SDS011;62039;50.000;9.064;2023-05-10T07:38:19;1.33;;;1.13;;
73733;SDS011;62039;50.000;9.064;2023-05-10T07:40:46;1.30;;;1.10;;
73733;SDS011;62039;50.000;9.064;2023-05-10T07:43:16;1.53;;;1.20;;
73733;SDS011;62039;50.000;9.064;2023-05-10T07:45:42;1.53;;;1.03;;
73733;SDS011;62039;50.000;9.064;2023-05-10T07:48:09;1.00;;;0.90;;
73733;SDS011;62039;50.000;9.064;2023-05-10T07:50:36;1.70;;;1.30;;
73733;SDS011;62039;50.000;9.064;2023-05-10T07:53:03;0.90;;;0.80;;
73733;SDS011;62039;50.000;9.064;2023-05-10T07:55:30;1.30;;;1.20;;
73733;SDS011;62039;50.000;9.064;2023-05-10T07:57:57;1.87;;;1.07;;
73733;SDS011;62039;50.000;9.064;2023-05-10T08:00:27;2.63;;;1.10;;
73733;SDS011;62039;50.000;9.064;2023-05-10T08:02:54;1.20;;;1.00;;
73733;SDS011;62039;50.000;9.064;2023-05-10T08:05:21;4.50;;;1.60;;
73733;SDS011;62039;50.000;9.064;2023-05-10T08:07:47;1.90;;;1.20;;
73733;SDS011;62039;50.000;9.064;2023-05-10T08:10:14;1.40;;;1.10;;
73733;SDS011;62039;50.000;9.064;2023-05-10T08:12:41;1.27;;;1.10;;
73733;SDS011;62039;50.000;9.064;2023-05-10T08:15:09;1.20;;;1.00;;
73733;SDS011;62039;50.000;9.064;2023-05-10T08:17:39;2.17;;;1.10;;
73733;SDS011;62039;50.000;9.064;2023-05-10T08:20:06;3.70;;;1.20;;
73733;SDS011;62039;50.000;9.064;2023-05-10T08:22:34;2.30;;;1.47;;
73733;SDS011;62039;50.000;9.064;2023-05-10T08:25:01;2.73;;;1.20;;
73733;SDS011;62039;50.000;9.064;2023-05-10T08:27:28;1.37;;;1.27;;
73733;SDS011;62039;50.000;9.064;2023-05-10T08:29:54;1.60;;;1.40;;
73733;SDS011;62039;50.000;9.064;2023-05-10T08:32:21;1.37;;;1.20;;
73733;SDS011;62039;50.000;9.064;2023-05-10T08:34:51;1.47;;;1.20;;
73733;SDS011;62039;50.000;9.064;2023-05-10T08:37:18;1.60;;;1.30;;
73733;SDS011;62039;50.000;9.064;2023-05-10T08:39:45;2.90;;;1.10;;
73733;SDS011;62039;50.000;9.064;2023-05-10T08:42:12;2.50;;;1.10;;
73733;SDS011;62039;50.000;9.064;2023-05-10T08:44:42;1.93;;;1.27;;
73733;SDS011;62039;50.000;9.064;2023-05-10T08:47:09;1.30;;;0.90;;
73733;SDS011;62039;50.000;9.064;2023-05-10T08:49:38;1.77;;;1.17;;
73733;SDS011;62039;50.000;9.064;2023-05-10T08:52:08;1.10;;;0.90;;
73733;SDS011;62039;50.000;9.064;2023-05-10T08:54:39;1.33;;;1.17;;
73733;SDS011;62039;50.000;9.064;2023-05-10T08:57:06;1.77;;;1.00;;
73733;SDS011;62039;50.000;9.064;2023-05-10T08:59:33;1.27;;;1.00;;
73733;SDS011;62039;50.000;9.064;2023-05-10T09:02:00;1.63;;;1.00;;
73733;SDS011;62039;50.000;9.064;2023-05-10T09:04:27;1.50;;;1.00;;
73733;SDS011;62039;50.000;9.064;2023-05-10T09:06:56;1.20;;;0.97;;
73733;SDS011;62039;50.000;9.064;2023-05-10T09:09:26;1.30;;;1.20;;
73733;SDS011;62039;50.000;9.064;2023-05-10T09:11:54;1.30;;;1.07;;
73733;SDS011;62039;50.000;9.064;2023-05-10T09:14:21;1.63;;;1.43;;
73733;SDS011;62039;50.000;9.064;2023-05-10T09:16:51;1.60;;;1.10;;
73733;SDS011;62039;50.000;9.064;2023-05-10T09:19:18;1.20;;;1.10;;
73733;SDS011;62039;50.000;9.064;2023-05-10T09:21:45;1.40;;;0.90;;
73733;SDS011;62039;50.000;9.064;2023-05-10T09:24:12;1.10;;;1.00;;
73733;SDS011;62039;50.000;9.064;2023-05-10T09:26:48;1.20;;;1.07;;
73733;SDS011;62039;50.000;9.064;2023-05-10T09:29:15;1.43;;;1.23;;
73733;SDS011;62039;50.000;9.064;2023-05-10T09:31:43;2.87;;;1.40;;
73733;SDS011;62039;50.000;9.064;2023-05-10T09:34:15;1.47;;;1.00;;
73733;SDS011;62039;50.000;9.064;2023-05-10T09:36:52;1.50;;;1.10;;
73733;SDS011;62039;50.000;9.064;2023-05-10T09:39:20;1.40;;;0.90;;
73733;SDS011;62039;50.000;9.064;2023-05-10T09:41:50;1.33;;;0.87;;
73733;SDS011;62039;50.000;9.064;2023-05-10T09:44:17;1.77;;;1.10;;
73733;SDS011;62039;50.000;9.064;2023-05-10T09:46:48;1.47;;;1.30;;
73733;SDS011;62039;50.000;9.064;2023-05-10T09:49:15;1.17;;;0.90;;
73733;SDS011;62039;50.000;9.064;2023-05-10T09:51:42;1.87;;;0.87;;
73733;SDS011;62039;50.000;9.064;2023-05-10T09:54:10;1.00;;;0.80;;
73733;SDS011;62039;50.000;9.064;2023-05-10T09:56:38;0.93;;;0.90;;
73733;SDS011;62039;50.000;9.064;2023-05-10T09:59:09;0.90;;;0.80;;
73733;SDS011;62039;50.000;9.064;2023-05-10T10:01:37;1.67;;;1.00;;
73733;SDS011;62039;50.000;9.064;2023-05-10T10:04:05;1.43;;;1.00;;
73733;SDS011;62039;50.000;9.064;2023-05-10T10:06:36;1.20;;;1.10;;
73733;SDS011;62039;50.000;9.064;2023-05-10T10:09:04;1.20;;;1.00;;
73733;SDS011;62039;50.000;9.064;2023-05-10T10:11:31;1.27;;;1.10;;
73733;SDS011;62039;50.000;9.064;2023-05-10T10:14:00;1.13;;;1.00;;
73733;SDS011;62039;50.000;9.064;2023-05-10T10:16:30;1.00;;;1.00;;
73733;SDS011;62039;50.000;9.064;2023-05-10T10:18:58;1.70;;;1.30;;
73733;SDS011;62039;50.000;9.064;2023-05-10T10:21:25;1.23;;;1.13;;
73733;SDS011;62039;50.000;9.064;2023-05-10T10:23:53;1.27;;;1.03;;
73733;SDS011;62039;50.000;9.064;2023-05-10T10:26:20;1.40;;;1.30;;
73733;SDS011;62039;50.000;9.064;2023-05-10T10:28:49;1.20;;;1.10;;
73733;SDS011;62039;50.000;9.064;2023-05-10T10:31:25;1.20;;;1.10;;
73733;SDS011;62039;50.000;9.064;2023-05-10T10:34:01;1.17;;;0.93;;
73733;SDS011;62039;50.000;9.064;2023-05-10T10:36:32;1.27;;;0.90;;
73733;SDS011;62039;50.000;9.064;2023-05-10T10:39:00;2.90;;;1.10;;
73733;SDS011;62039;50.000;9.064;2023-05-10T10:41:29;1.33;;;0.83;;
73733;SDS011;62039;50.000;9.064;2023-05-10T10:47:02;1.90;;;0.70;;
73733;SDS011;62039;50.000;9.064;2023-05-10T10:49:30;0.63;;;0.63;;
73733;SDS011;62039;50.000;9.064;2023-05-10T10:52:13;0.97;;;0.50;;
73733;SDS011;62039;50.000;9.064;2023-05-10T10:54:51;1.00;;;0.70;;
73733;SDS011;62039;50.000;9.064;2023-05-10T10:57:19;1.27;;;0.70;;
73733;SDS011;62039;50.000;9.064;2023-05-10T10:59:46;0.60;;;0.60;;
73733;SDS011;62039;50.000;9.064;2023-05-10T11:08:10;0.70;;;0.50;;
73733;SDS011;62039;50.000;9.064;2023-05-10T11:10:38;1.00;;;0.60;;
73733;SDS011;62039;50.000;9.064;2023-05-10T11:13:07;0.40;;;0.40;;
73733;SDS011;62039;50.000;9.064;2023-05-10T11:15:35;0.90;;;0.50;;
73733;SDS011;62039;50.000;9.064;2023-05-10T11:20:51;0.57;;;0.57;;
73733;SDS011;62039;50.000;9.064;2023-05-10T11:23:21;0.70;;;0.70;;
73733;SDS011;62039;50.000;9.064;2023-05-10T11:25:49;0.50;;;0.50;;
73733;SDS011;62039;50.000;9.064;2023-05-10T11:28:19;1.13;;;0.50;;
73733;SDS011;62039;50.000;9.064;2023-05-10T11:30:46;0.53;;;0.53;;
73733;SDS011;62039;50.000;9.064;2023-05-10T11:33:17;0.60;;;0.60;;
73733;SDS011;62039;50.000;9.064;2023-05-10T11:35:47;1.27;;;0.60;;
73733;SDS011;62039;50.000;9.064;2023-05-10T11:38:14;1.17;;;0.73;;
73733;SDS011;62039;50.000;9.064;2023-05-10T11:40:41;0.70;;;0.70;;
73733;SDS011;62039;50.000;9.064;2023-05-10T11:43:09;0.70;;;0.70;;
73733;SDS011;62039;50.000;9.064;2023-05-10T11:45:36;0.87;;;0.63;;
73733;SDS011;62039;50.000;9.064;2023-05-10T11:48:04;0.93;;;0.53;;
73733;SDS011;62039;50.000;9.064;2023-05-10T11:50:31;1.03;;;0.80;;
73733;SDS011;62039;50.000;9.064;2023-05-10T11:53:01;4.10;;;0.70;;
73733;SDS011;62039;50.000;9.064;2023-05-10T11:55:28;1.10;;;0.70;;
73733;SDS011;62039;50.000;9.064;2023-05-10T11:57:55;1.40;;;0.70;;
73733;SDS011;62039;50.000;9.064;2023-05-10T12:00:27;0.57;;;0.57;;
73733;SDS011;62039;50.000;9.064;2023-05-10T12:02:55;0.60;;;0.60;;
73733;SDS011;62039;50.000;9.064;2023-05-10T12:05:22;0.90;;;0.60;;
73733;SDS011;62039;50.000;9.064;2023-05-10T12:07:49;1.07;;;0.67;;
73733;SDS011;62039;50.000;9.064;2023-05-10T12:10:24;0.90;;;0.60;;
73733;SDS011;62039;50.000;9.064;2023-05-10T12:12:52;0.83;;;0.50;;
73733;SDS011;62039;50.000;9.064;2023-05-10T12:15:20;0.70;;;0.70;;
73733;SDS011;62039;50.000;9.064;2023-05-10T12:17:48;0.50;;;0.50;;
73733;SDS011;62039;50.000;9.064;2023-05-10T12:20:16;0.73;;;0.60;;
73733;SDS011;62039;50.000;9.064;2023-05-10T12:22:45;0.60;;;0.60;;
73733;SDS011;62039;50.000;9.064;2023-05-10T12:25:19;0.83;;;0.40;;
73733;SDS011;62039;50.000;9.064;2023-05-10T12:27:48;0.40;;;0.40;;
73733;SDS011;62039;50.000;9.064;2023-05-10T12:30:20;1.17;;;0.67;;
73733;SDS011;62039;50.000;9.064;2023-05-10T12:32:48;1.03;;;0.53;;
73733;SDS011;62039;50.000;9.064;2023-05-10T12:35:16;0.60;;;0.60;;
73733;SDS011;62039;50.000;9.064;2023-05-10T12:37:43;0.53;;;0.50;;
73733;SDS011;62039;50.000;9.064;2023-05-10T12:40:10;0.83;;;0.60;;
73733;SDS011;62039;50.000;9.064;2023-05-10T12:42:40;1.57;;;0.60;;
73733;SDS011;62039;50.000;9.064;2023-05-10T12:45:08;0.53;;;0.50;;
73733;SDS011;62039;50.000;9.064;2023-05-10T12:47:35;1.90;;;0.83;;
73733;SDS011;62039;50.000;9.064;2023-05-10T12:50:03;0.90;;;0.70;;
73733;SDS011;62039;50.000;9.064;2023-05-10T12:52:32;0.60;;;0.50;;
73733;SDS011;62039;50.000;9.064;2023-05-10T12:54:59;0.70;;;0.70;;
73733;SDS011;62039;50.000;9.064;2023-05-10T12:57:26;0.50;;;0.50;;
73733;SDS011;62039;50.000;9.064;2023-05-10T12:59:56;1.10;;;0.70;;
73733;SDS011;62039;50.000;9.064;2023-05-10T13:02:23;0.70;;;0.60;;
73733;SDS011;62039;50.000;9.064;2023-05-10T13:04:50;0.60;;;0.60;;
73733;SDS011;62039;50.000;9.064;2023-05-10T13:07:17;0.63;;;0.60;;
73733;SDS011;62039;50.000;9.064;2023-05-10T13:09:44;0.70;;;0.70;;
73733;SDS011;62039;50.000;9.064;2023-05-10T13:12:12;0.50;;;0.50;;
73733;SDS011;62039;50.000;9.064;2023-05-10T13:14:39;2.23;;;0.70;;
73733;SDS011;62039;50.000;9.064;2023-05-10T13:17:08;0.40;;;0.40;;
73733;SDS011;62039;50.000;9.064;2023-05-10T13:19:36;0.60;;;0.60;;
73733;SDS011;62039;50.000;9.064;2023-05-10T13:22:03;0.60;;;0.60;;
73733;SDS011;62039;50.000;9.064;2023-05-10T13:24:29;0.50;;;0.50;;
73733;SDS011;62039;50.000;9.064;2023-05-10T13:26:57;1.50;;;0.70;;
73733;SDS011;62039;50.000;9.064;2023-05-10T13:29:24;0.70;;;0.60;;
73733;SDS011;62039;50.000;9.064;2023-05-10T13:31:51;0.50;;;0.50;;
73733;SDS011;62039;50.000;9.064;2023-05-10T13:34:21;1.60;;;0.50;;
73733;SDS011;62039;50.000;9.064;2023-05-10T13:36:48;0.67;;;0.40;;
73733;SDS011;62039;50.000;9.064;2023-05-10T13:39:15;1.43;;;0.53;;
73733;SDS011;62039;50.000;9.064;2023-05-10T13:41:42;0.50;;;0.50;;
73733;SDS011;62039;50.000;9.064;2023-05-10T13:44:11;0.60;;;0.50;;
73733;SDS011;62039;50.000;9.064;2023-05-10T13:46:39;0.97;;;0.50;;
73733;SDS011;62039;50.000;9.064;2023-05-10T13:49:06;1.17;;;0.60;;
73733;SDS011;62039;50.000;9.064;2023-05-10T13:51:36;0.50;;;0.50;;
73733;SDS011;62039;50.000;9.064;2023-05-10T13:54:03;1.00;;;0.57;;
73733;SDS011;62039;50.000;9.064;2023-05-10T13:56:30;0.87;;;0.50;;
73733;SDS011;62039;50.000;9.064;2023-05-10T13:58:57;0.40;;;0.40;;
73733;SDS011;62039;50.000;9.064;2023-05-10T14:01:24;0.80;;;0.70;;
73733;SDS011;62039;50.000;9.064;2023-05-10T14:03:51;1.23;;;0.50;;
73733;SDS011;62039;50.000;9.064;2023-05-10T14:06:18;0.50;;;0.50;;
73733;SDS011;62039;50.000;9.064;2023-05-10T14:08:48;1.10;;;0.50;;
73733;SDS011;62039;50.000;9.064;2023-05-10T14:11:15;0.53;;;0.43;;
73733;SDS011;62039;50.000;9.064;2023-05-10T14:13:42;0.67;;;0.50;;
73733;SDS011;62039;50.000;9.064;2023-05-10T14:16:09;1.73;;;0.57;;
73733;SDS011;62039;50.000;9.064;2023-05-10T14:18:36;0.57;;;0.40;;
73733;SDS011;62039;50.000;9.064;2023-05-10T14:21:04;0.50;;;0.50;;
73733;SDS011;62039;50.000;9.064;2023-05-10T14:23:31;0.53;;;0.50;;
73733;SDS011;62039;50.000;9.064;2023-05-10T14:26:01;0.40;;;0.40;;
73733;SDS011;62039;50.000;9.064;2023-05-10T14:28:28;1.67;;;0.40;;
73733;SDS011;62039;50.000;9.064;2023-05-10T14:31:05;0.67;;;0.50;;
73733;SDS011;62039;50.000;9.064;2023-05-10T14:33:33;1.63;;;0.57;;
73733;SDS011;62039;50.000;9.064;2023-05-10T14:36:00;0.47;;;0.47;;
73733;SDS011;62039;50.000;9.064;2023-05-10T14:38:27;1.70;;;0.50;;
73733;SDS011;62039;50.000;9.064;2023-05-10T14:40:53;0.50;;;0.50;;
73733;SDS011;62039;50.000;9.064;2023-05-10T14:43:23;1.13;;;0.60;;
73733;SDS011;62039;50.000;9.064;2023-05-10T14:45:50;1.27;;;0.70;;
73733;SDS011;62039;50.000;9.064;2023-05-10T14:48:17;0.63;;;0.50;;
73733;SDS011;62039;50.000;9.064;2023-05-10T14:50:44;0.63;;;0.53;;
73733;SDS011;62039;50.000;9.064;2023-05-10T14:53:12;0.40;;;0.40;;
73733;SDS011;62039;50.000;9.064;2023-05-10T14:55:39;0.93;;;0.60;;
73733;SDS011;62039;50.000;9.064;2023-05-10T14:58:06;1.30;;;0.60;;
73733;SDS011;62039;50.000;9.064;2023-05-10T15:00:35;0.60;;;0.60;;
73733;SDS011;62039;50.000;9.064;2023-05-10T15:03:03;0.60;;;0.60;;
73733;SDS011;62039;50.000;9.064;2023-05-10T15:05:31;0.63;;;0.50;;
73733;SDS011;62039;50.000;9.064;2023-05-10T15:07:58;0.60;;;0.60;;
73733;SDS011;62039;50.000;9.064;2023-05-10T15:10:25;2.57;;;0.70;;